sensor_id;sensor_type;location;lat;lon;timestamp;P1;durP1;ratioP1;P2;durP2;ratioP2
68484;SDS011;55472;50.060;21.960;2023-06-22T00:01:11;11.53;;;7.13;;
68484;SDS011;55472;50.060;21.960;2023-06-22T00:03:38;12.02;;;7.57;;
68484;SDS011;55472;50.060;21.960;2023-06-22T00:06:04;12.18;;;7.70;;
68484;SDS011;55472;50.060;21.960;2023-06-22T00:08:30;12.50;;;7.50;;
68484;SDS011;55472;50.060;21.960;2023-06-22T00:10:56;12.00;;;7.90;;
68484;SDS011;55472;50.060;21.960;2023-06-22T00:13:22;13.03;;;7.93;;
68484;SDS011;55472;50.060;21.960;2023-06-22T00:15:48;12.43;;;7.70;;
68484;SDS011;55472;50.060;21.960;2023-06-22T00:18:15;12.88;;;7.25;;
68484;SDS011;55472;50.060;21.960;2023-06-22T00:20:41;13.48;;;7.68;;
68484;SDS011;55472;50.060;21.960;2023-06-22T00:23:08;11.98;;;7.53;;
68484;SDS011;55472;50.060;21.960;2023-06-22T00:25:37;14.83;;;7.50;;
68484;SDS011;55472;50.060;21.960;2023-06-22T00:28:07;11.55;;;7.07;;
68484;SDS011;55472;50.060;21.960;2023-06-22T00:30:34;12.43;;;7.75;;
68484;SDS011;55472;50.060;21.960;2023-06-22T00:33:00;12.75;;;8.10;;
68484;SDS011;55472;50.060;21.960;2023-06-22T00:35:26;10.85;;;7.60;;
68484;SDS011;55472;50.060;21.960;2023-06-22T00:37:56;11.87;;;7.47;;
68484;SDS011;55472;50.060;21.960;2023-06-22T00:40:28;14.38;;;7.60;;
68484;SDS011;55472;50.060;21.960;2023-06-22T00:42:58;11.85;;;7.65;;
68484;SDS011;55472;50.060;21.960;2023-06-22T00:45:25;11.85;;;7.20;;
68484;SDS011;55472;50.060;21.960;2023-06-22T00:47:53;12.73;;;7.95;;
68484;SDS011;55472;50.060;21.960;2023-06-22T00:50:22;11.07;;;7.40;;
68484;SDS011;55472;50.060;21.960;2023-06-22T00:52:52;11.35;;;7.32;;
68484;SDS011;55472;50.060;21.960;2023-06-22T00:55:22;14.90;;;8.07;;
68484;SDS011;55472;50.060;21.960;2023-06-22T00:57:49;14.27;;;8.30;;
68484;SDS011;55472;50.060;21.960;2023-06-22T01:00:15;11.63;;;7.28;;
68484;SDS011;55472;50.060;21.960;2023-06-22T01:02:44;13.07;;;7.67;;
68484;SDS011;55472;50.060;21.960;2023-06-22T01:05:17;13.05;;;7.63;;
68484;SDS011;55472;50.060;21.960;2023-06-22T01:08:05;12.70;;;7.95;;
68484;SDS011;55472;50.060;21.960;2023-06-22T01:10:54;13.35;;;7.88;;
68484;SDS011;55472;50.060;21.960;2023-06-22T01:16:24;14.50;;;8.27;;
68484;SDS011;55472;50.060;21.960;2023-06-22T01:19:01;16.27;;;8.52;;
68484;SDS011;55472;50.060;21.960;2023-06-22T01:22:01;14.38;;;8.13;;
68484;SDS011;55472;50.060;21.960;2023-06-22T01:24:33;14.30;;;8.48;;
68484;SDS011;55472;50.060;21.960;2023-06-22T01:30:46;14.27;;;7.63;;
68484;SDS011;55472;50.060;21.960;2023-06-22T01:33:14;13.27;;;7.95;;
68484;SDS011;55472;50.060;21.960;2023-06-22T01:35:42;14.55;;;8.20;;
68484;SDS011;55472;50.060;21.960;2023-06-22T01:38:09;16.23;;;8.10;;
68484;SDS011;55472;50.060;21.960;2023-06-22T01:40:36;13.63;;;8.20;;
68484;SDS011;55472;50.060;21.960;2023-06-22T01:43:02;14.20;;;8.40;;
68484;SDS011;55472;50.060;21.960;2023-06-22T01:45:29;12.55;;;8.05;;
68484;SDS011;55472;50.060;21.960;2023-06-22T01:47:55;13.73;;;8.15;;
68484;SDS011;55472;50.060;21.960;2023-06-22T01:50:24;14.68;;;8.15;;
68484;SDS011;55472;50.060;21.960;2023-06-22T01:52:50;14.05;;;8.85;;
68484;SDS011;55472;50.060;21.960;2023-06-22T01:55:16;16.37;;;8.60;;
68484;SDS011;55472;50.060;21.960;2023-06-22T01:57:42;14.18;;;8.52;;
68484;SDS011;55472;50.060;21.960;2023-06-22T02:00:12;12.82;;;8.38;;
68484;SDS011;55472;50.060;21.960;2023-06-22T02:02:54;15.65;;;8.02;;
68484;SDS011;55472;50.060;21.960;2023-06-22T02:05:28;15.55;;;8.55;;
68484;SDS011;55472;50.060;21.960;2023-06-22T02:08:09;16.40;;;8.67;;
68484;SDS011;55472;50.060;21.960;2023-06-22T02:10:42;13.80;;;8.40;;
68484;SDS011;55472;50.060;21.960;2023-06-22T02:13:09;15.02;;;8.73;;
68484;SDS011;55472;50.060;21.960;2023-06-22T02:15:36;13.48;;;7.90;;
68484;SDS011;55472;50.060;21.960;2023-06-22T02:18:02;16.88;;;8.80;;
68484;SDS011;55472;50.060;21.960;2023-06-22T02:20:30;13.57;;;8.13;;
68484;SDS011;55472;50.060;21.960;2023-06-22T02:22:56;14.38;;;8.73;;
68484;SDS011;55472;50.060;21.960;2023-06-22T02:25:22;15.23;;;8.60;;
68484;SDS011;55472;50.060;21.960;2023-06-22T02:27:48;14.77;;;9.50;;
68484;SDS011;55472;50.060;21.960;2023-06-22T02:30:15;14.75;;;8.38;;
68484;SDS011;55472;50.060;21.960;2023-06-22T02:32:41;12.23;;;8.13;;
68484;SDS011;55472;50.060;21.960;2023-06-22T02:35:09;15.50;;;8.63;;
68484;SDS011;55472;50.060;21.960;2023-06-22T02:37:36;13.90;;;8.60;;
68484;SDS011;55472;50.060;21.960;2023-06-22T02:40:07;14.65;;;9.00;;
68484;SDS011;55472;50.060;21.960;2023-06-22T02:42:37;14.52;;;8.50;;
68484;SDS011;55472;50.060;21.960;2023-06-22T02:45:05;14.77;;;8.67;;
68484;SDS011;55472;50.060;21.960;2023-06-22T02:47:31;13.77;;;8.57;;
68484;SDS011;55472;50.060;21.960;2023-06-22T02:49:58;13.82;;;7.57;;
68484;SDS011;55472;50.060;21.960;2023-06-22T02:52:24;13.30;;;8.52;;
68484;SDS011;55472;50.060;21.960;2023-06-22T02:54:50;14.45;;;8.75;;
68484;SDS011;55472;50.060;21.960;2023-06-22T02:57:16;15.70;;;8.70;;
68484;SDS011;55472;50.060;21.960;2023-06-22T02:59:42;14.27;;;8.27;;
68484;SDS011;55472;50.060;21.960;2023-06-22T03:02:08;13.23;;;8.10;;
68484;SDS011;55472;50.060;21.960;2023-06-22T03:04:35;16.75;;;9.45;;
68484;SDS011;55472;50.060;21.960;2023-06-22T03:07:01;15.60;;;9.37;;
68484;SDS011;55472;50.060;21.960;2023-06-22T03:09:28;15.07;;;8.70;;
68484;SDS011;55472;50.060;21.960;2023-06-22T03:11:54;15.52;;;9.48;;
68484;SDS011;55472;50.060;21.960;2023-06-22T03:14:20;15.90;;;9.18;;
68484;SDS011;55472;50.060;21.960;2023-06-22T03:16:47;16.67;;;8.90;;
68484;SDS011;55472;50.060;21.960;2023-06-22T03:19:13;16.13;;;9.07;;
68484;SDS011;55472;50.060;21.960;2023-06-22T03:21:39;14.48;;;8.43;;
68484;SDS011;55472;50.060;21.960;2023-06-22T03:24:06;14.55;;;8.75;;
68484;SDS011;55472;50.060;21.960;2023-06-22T03:26:33;13.25;;;8.38;;
68484;SDS011;55472;50.060;21.960;2023-06-22T03:29:00;13.82;;;8.65;;
68484;SDS011;55472;50.060;21.960;2023-06-22T03:31:26;14.60;;;8.47;;
68484;SDS011;55472;50.060;21.960;2023-06-22T03:33:52;14.30;;;8.63;;
68484;SDS011;55472;50.060;21.960;2023-06-22T03:36:19;14.57;;;8.65;;
68484;SDS011;55472;50.060;21.960;2023-06-22T03:38:45;15.48;;;8.60;;
68484;SDS011;55472;50.060;21.960;2023-06-22T03:41:12;16.05;;;8.32;;
68484;SDS011;55472;50.060;21.960;2023-06-22T03:43:39;14.90;;;8.73;;
68484;SDS011;55472;50.060;21.960;2023-06-22T03:46:05;14.82;;;8.52;;
68484;SDS011;55472;50.060;21.960;2023-06-22T03:48:31;16.52;;;8.05;;
68484;SDS011;55472;50.060;21.960;2023-06-22T03:50:58;14.50;;;8.52;;
68484;SDS011;55472;50.060;21.960;2023-06-22T03:53:26;16.02;;;9.18;;
68484;SDS011;55472;50.060;21.960;2023-06-22T03:55:52;13.57;;;8.27;;
68484;SDS011;55472;50.060;21.960;2023-06-22T03:58:19;14.32;;;8.65;;
68484;SDS011;55472;50.060;21.960;2023-06-22T04:00:47;15.07;;;8.35;;
68484;SDS011;55472;50.060;21.960;2023-06-22T04:03:14;13.43;;;8.50;;
68484;SDS011;55472;50.060;21.960;2023-06-22T04:05:44;14.80;;;8.23;;
68484;SDS011;55472;50.060;21.960;2023-06-22T04:08:10;13.73;;;8.33;;
68484;SDS011;55472;50.060;21.960;2023-06-22T04:10:38;15.10;;;8.52;;
68484;SDS011;55472;50.060;21.960;2023-06-22T04:13:04;15.52;;;9.20;;
68484;SDS011;55472;50.060;21.960;2023-06-22T04:15:30;15.98;;;8.75;;
68484;SDS011;55472;50.060;21.960;2023-06-22T04:17:56;14.52;;;8.80;;
68484;SDS011;55472;50.060;21.960;2023-06-22T04:20:23;17.40;;;8.53;;
68484;SDS011;55472;50.060;21.960;2023-06-22T04:22:52;12.77;;;7.90;;
68484;SDS011;55472;50.060;21.960;2023-06-22T04:25:19;16.13;;;8.07;;
68484;SDS011;55472;50.060;21.960;2023-06-22T04:27:46;13.55;;;8.10;;
68484;SDS011;55472;50.060;21.960;2023-06-22T04:30:13;12.88;;;8.10;;
68484;SDS011;55472;50.060;21.960;2023-06-22T04:32:43;11.90;;;8.10;;
68484;SDS011;55472;50.060;21.960;2023-06-22T04:35:12;12.32;;;7.60;;
68484;SDS011;55472;50.060;21.960;2023-06-22T04:37:41;13.82;;;7.93;;
68484;SDS011;55472;50.060;21.960;2023-06-22T04:40:07;13.75;;;8.13;;
68484;SDS011;55472;50.060;21.960;2023-06-22T04:42:34;14.93;;;8.57;;
68484;SDS011;55472;50.060;21.960;2023-06-22T04:45:02;15.40;;;9.17;;
68484;SDS011;55472;50.060;21.960;2023-06-22T04:47:29;15.18;;;9.50;;
68484;SDS011;55472;50.060;21.960;2023-06-22T04:49:56;15.25;;;9.60;;
68484;SDS011;55472;50.060;21.960;2023-06-22T04:52:22;16.77;;;10.10;;
68484;SDS011;55472;50.060;21.960;2023-06-22T04:54:50;17.02;;;9.63;;
68484;SDS011;55472;50.060;21.960;2023-06-22T04:57:22;18.20;;;10.20;;
68484;SDS011;55472;50.060;21.960;2023-06-22T04:59:56;15.15;;;9.98;;
68484;SDS011;55472;50.060;21.960;2023-06-22T05:02:22;19.40;;;10.05;;
68484;SDS011;55472;50.060;21.960;2023-06-22T05:04:53;17.35;;;10.50;;
68484;SDS011;55472;50.060;21.960;2023-06-22T05:07:22;19.98;;;10.90;;
68484;SDS011;55472;50.060;21.960;2023-06-22T05:09:51;17.00;;;10.53;;
68484;SDS011;55472;50.060;21.960;2023-06-22T05:12:16;16.83;;;10.48;;
68484;SDS011;55472;50.060;21.960;2023-06-22T05:14:43;19.10;;;10.75;;
68484;SDS011;55472;50.060;21.960;2023-06-22T05:17:09;20.73;;;11.50;;
68484;SDS011;55472;50.060;21.960;2023-06-22T05:19:39;17.85;;;10.88;;
68484;SDS011;55472;50.060;21.960;2023-06-22T05:22:10;20.97;;;10.87;;
68484;SDS011;55472;50.060;21.960;2023-06-22T05:24:37;18.08;;;10.50;;
68484;SDS011;55472;50.060;21.960;2023-06-22T05:27:03;19.85;;;11.30;;
68484;SDS011;55472;50.060;21.960;2023-06-22T05:29:30;20.02;;;11.02;;
68484;SDS011;55472;50.060;21.960;2023-06-22T05:31:57;18.53;;;11.17;;
68484;SDS011;55472;50.060;21.960;2023-06-22T05:34:23;18.20;;;11.02;;
68484;SDS011;55472;50.060;21.960;2023-06-22T05:36:49;18.58;;;11.18;;
68484;SDS011;55472;50.060;21.960;2023-06-22T05:39:15;22.27;;;11.05;;
68484;SDS011;55472;50.060;21.960;2023-06-22T05:41:41;18.10;;;10.35;;
68484;SDS011;55472;50.060;21.960;2023-06-22T05:44:08;19.77;;;11.23;;
68484;SDS011;55472;50.060;21.960;2023-06-22T05:46:34;18.77;;;10.93;;
68484;SDS011;55472;50.060;21.960;2023-06-22T05:49:01;18.50;;;10.85;;
68484;SDS011;55472;50.060;21.960;2023-06-22T05:51:27;21.70;;;11.07;;
68484;SDS011;55472;50.060;21.960;2023-06-22T05:53:53;19.92;;;11.20;;
68484;SDS011;55472;50.060;21.960;2023-06-22T05:56:19;17.67;;;10.90;;
68484;SDS011;55472;50.060;21.960;2023-06-22T05:58:46;19.83;;;11.43;;
68484;SDS011;55472;50.060;21.960;2023-06-22T06:01:13;17.80;;;10.68;;
68484;SDS011;55472;50.060;21.960;2023-06-22T06:03:41;19.77;;;11.32;;
68484;SDS011;55472;50.060;21.960;2023-06-22T06:06:07;17.67;;;11.00;;
68484;SDS011;55472;50.060;21.960;2023-06-22T06:08:33;17.50;;;10.67;;
68484;SDS011;55472;50.060;21.960;2023-06-22T06:10:59;20.67;;;11.25;;
68484;SDS011;55472;50.060;21.960;2023-06-22T06:13:26;18.98;;;10.88;;
68484;SDS011;55472;50.060;21.960;2023-06-22T06:15:51;21.98;;;10.63;;
68484;SDS011;55472;50.060;21.960;2023-06-22T06:18:20;20.00;;;11.52;;
68484;SDS011;55472;50.060;21.960;2023-06-22T06:20:46;19.67;;;10.47;;
68484;SDS011;55472;50.060;21.960;2023-06-22T06:23:12;17.80;;;10.45;;
68484;SDS011;55472;50.060;21.960;2023-06-22T06:25:38;17.52;;;11.02;;
68484;SDS011;55472;50.060;21.960;2023-06-22T06:28:05;17.25;;;10.88;;
68484;SDS011;55472;50.060;21.960;2023-06-22T06:30:31;20.27;;;11.43;;
68484;SDS011;55472;50.060;21.960;2023-06-22T06:32:58;16.87;;;10.60;;
68484;SDS011;55472;50.060;21.960;2023-06-22T06:35:24;17.65;;;11.32;;
68484;SDS011;55472;50.060;21.960;2023-06-22T06:37:50;17.38;;;11.40;;
68484;SDS011;55472;50.060;21.960;2023-06-22T06:40:17;19.85;;;11.80;;
68484;SDS011;55472;50.060;21.960;2023-06-22T06:42:44;18.70;;;10.75;;
68484;SDS011;55472;50.060;21.960;2023-06-22T06:45:20;18.20;;;10.90;;
68484;SDS011;55472;50.060;21.960;2023-06-22T06:47:48;17.70;;;10.95;;
68484;SDS011;55472;50.060;21.960;2023-06-22T06:50:16;16.95;;;11.57;;
68484;SDS011;55472;50.060;21.960;2023-06-22T06:52:43;17.83;;;10.90;;
68484;SDS011;55472;50.060;21.960;2023-06-22T06:55:09;16.83;;;10.10;;
68484;SDS011;55472;50.060;21.960;2023-06-22T06:57:37;20.23;;;12.80;;
68484;SDS011;55472;50.060;21.960;2023-06-22T07:00:05;19.58;;;10.40;;
68484;SDS011;55472;50.060;21.960;2023-06-22T07:02:39;16.98;;;9.82;;
68484;SDS011;55472;50.060;21.960;2023-06-22T07:05:07;15.75;;;10.13;;
68484;SDS011;55472;50.060;21.960;2023-06-22T07:07:34;16.15;;;9.80;;
68484;SDS011;55472;50.060;21.960;2023-06-22T07:10:01;16.63;;;9.87;;
68484;SDS011;55472;50.060;21.960;2023-06-22T07:12:28;15.88;;;9.82;;
68484;SDS011;55472;50.060;21.960;2023-06-22T07:14:57;13.10;;;9.18;;
68484;SDS011;55472;50.060;21.960;2023-06-22T07:17:37;13.63;;;9.13;;
68484;SDS011;55472;50.060;21.960;2023-06-22T07:20:06;13.65;;;9.15;;
68484;SDS011;55472;50.060;21.960;2023-06-22T07:22:37;12.07;;;8.70;;
68484;SDS011;55472;50.060;21.960;2023-06-22T07:25:05;15.75;;;10.00;;
68484;SDS011;55472;50.060;21.960;2023-06-22T07:27:37;13.38;;;8.27;;
68484;SDS011;55472;50.060;21.960;2023-06-22T07:30:08;12.77;;;8.70;;
68484;SDS011;55472;50.060;21.960;2023-06-22T07:32:36;12.23;;;8.35;;
68484;SDS011;55472;50.060;21.960;2023-06-22T07:35:02;13.73;;;7.50;;
68484;SDS011;55472;50.060;21.960;2023-06-22T07:37:29;11.55;;;7.32;;
68484;SDS011;55472;50.060;21.960;2023-06-22T07:39:58;14.05;;;8.30;;
68484;SDS011;55472;50.060;21.960;2023-06-22T07:42:25;15.68;;;7.82;;
68484;SDS011;55472;50.060;21.960;2023-06-22T07:44:51;12.55;;;7.88;;
68484;SDS011;55472;50.060;21.960;2023-06-22T07:47:19;11.80;;;8.00;;
68484;SDS011;55472;50.060;21.960;2023-06-22T07:49:45;11.98;;;8.20;;
68484;SDS011;55472;50.060;21.960;2023-06-22T07:52:12;10.30;;;7.70;;
68484;SDS011;55472;50.060;21.960;2023-06-22T07:54:38;11.05;;;7.05;;
68484;SDS011;55472;50.060;21.960;2023-06-22T07:57:04;12.63;;;7.40;;
68484;SDS011;55472;50.060;21.960;2023-06-22T07:59:31;9.53;;;6.93;;
68484;SDS011;55472;50.060;21.960;2023-06-22T08:01:57;9.95;;;6.78;;
68484;SDS011;55472;50.060;21.960;2023-06-22T08:04:23;11.43;;;7.60;;
68484;SDS011;55472;50.060;21.960;2023-06-22T08:06:49;10.38;;;7.55;;
68484;SDS011;55472;50.060;21.960;2023-06-22T08:09:15;10.63;;;7.50;;
68484;SDS011;55472;50.060;21.960;2023-06-22T08:11:42;10.77;;;7.63;;
68484;SDS011;55472;50.060;21.960;2023-06-22T08:14:08;10.82;;;7.35;;
68484;SDS011;55472;50.060;21.960;2023-06-22T08:16:34;11.85;;;8.18;;
68484;SDS011;55472;50.060;21.960;2023-06-22T08:19:00;12.18;;;8.57;;
68484;SDS011;55472;50.060;21.960;2023-06-22T08:21:26;10.07;;;7.28;;
68484;SDS011;55472;50.060;21.960;2023-06-22T08:23:53;11.57;;;6.97;;
68484;SDS011;55472;50.060;21.960;2023-06-22T08:26:19;10.57;;;7.80;;
68484;SDS011;55472;50.060;21.960;2023-06-22T08:28:45;10.95;;;7.40;;
68484;SDS011;55472;50.060;21.960;2023-06-22T08:31:12;12.45;;;7.65;;
68484;SDS011;55472;50.060;21.960;2023-06-22T08:33:39;11.43;;;7.65;;
68484;SDS011;55472;50.060;21.960;2023-06-22T08:36:06;12.10;;;7.60;;
68484;SDS011;55472;50.060;21.960;2023-06-22T08:38:33;13.00;;;7.70;;
68484;SDS011;55472;50.060;21.960;2023-06-22T08:40:59;10.95;;;7.70;;
68484;SDS011;55472;50.060;21.960;2023-06-22T08:43:26;13.45;;;8.38;;
68484;SDS011;55472;50.060;21.960;2023-06-22T08:45:52;9.55;;;7.93;;
68484;SDS011;55472;50.060;21.960;2023-06-22T08:48:18;11.07;;;7.80;;
68484;SDS011;55472;50.060;21.960;2023-06-22T08:50:44;12.13;;;7.97;;
68484;SDS011;55472;50.060;21.960;2023-06-22T08:53:10;11.43;;;7.88;;
68484;SDS011;55472;50.060;21.960;2023-06-22T08:55:36;11.13;;;7.97;;
68484;SDS011;55472;50.060;21.960;2023-06-22T08:58:02;14.85;;;8.52;;
68484;SDS011;55472;50.060;21.960;2023-06-22T09:00:29;13.27;;;8.03;;
68484;SDS011;55472;50.060;21.960;2023-06-22T09:02:59;13.25;;;7.85;;
68484;SDS011;55472;50.060;21.960;2023-06-22T09:05:26;13.05;;;8.65;;
68484;SDS011;55472;50.060;21.960;2023-06-22T09:07:52;12.32;;;8.50;;
68484;SDS011;55472;50.060;21.960;2023-06-22T09:10:20;12.65;;;8.32;;
68484;SDS011;55472;50.060;21.960;2023-06-22T09:12:46;11.73;;;7.93;;
68484;SDS011;55472;50.060;21.960;2023-06-22T09:15:12;14.27;;;8.30;;
68484;SDS011;55472;50.060;21.960;2023-06-22T09:17:40;12.80;;;8.48;;
68484;SDS011;55472;50.060;21.960;2023-06-22T09:20:06;10.93;;;7.55;;
68484;SDS011;55472;50.060;21.960;2023-06-22T09:22:36;11.07;;;8.55;;
68484;SDS011;55472;50.060;21.960;2023-06-22T09:25:02;11.30;;;7.90;;
68484;SDS011;55472;50.060;21.960;2023-06-22T09:27:30;10.45;;;8.00;;
68484;SDS011;55472;50.060;21.960;2023-06-22T09:29:56;12.38;;;8.35;;
68484;SDS011;55472;50.060;21.960;2023-06-22T09:32:24;10.77;;;8.45;;
68484;SDS011;55472;50.060;21.960;2023-06-22T09:34:51;9.88;;;7.53;;
68484;SDS011;55472;50.060;21.960;2023-06-22T09:37:18;10.90;;;7.43;;
68484;SDS011;55472;50.060;21.960;2023-06-22T09:39:44;9.98;;;7.45;;
68484;SDS011;55472;50.060;21.960;2023-06-22T09:42:10;12.30;;;7.38;;
68484;SDS011;55472;50.060;21.960;2023-06-22T09:44:38;12.68;;;8.38;;
68484;SDS011;55472;50.060;21.960;2023-06-22T09:47:04;12.07;;;8.17;;
68484;SDS011;55472;50.060;21.960;2023-06-22T09:49:31;11.10;;;8.02;;
68484;SDS011;55472;50.060;21.960;2023-06-22T09:51:57;9.73;;;7.95;;
68484;SDS011;55472;50.060;21.960;2023-06-22T09:54:24;12.27;;;7.63;;
68484;SDS011;55472;50.060;21.960;2023-06-22T09:56:50;10.70;;;7.93;;
68484;SDS011;55472;50.060;21.960;2023-06-22T09:59:16;11.83;;;8.30;;
68484;SDS011;55472;50.060;21.960;2023-06-22T10:01:42;11.25;;;8.48;;
68484;SDS011;55472;50.060;21.960;2023-06-22T10:04:08;10.65;;;8.23;;
68484;SDS011;55472;50.060;21.960;2023-06-22T10:06:34;13.82;;;8.80;;
68484;SDS011;55472;50.060;21.960;2023-06-22T10:09:00;17.25;;;8.18;;
68484;SDS011;55472;50.060;21.960;2023-06-22T10:11:27;17.57;;;9.30;;
68484;SDS011;55472;50.060;21.960;2023-06-22T10:13:55;14.65;;;9.00;;
68484;SDS011;55472;50.060;21.960;2023-06-22T10:16:23;13.20;;;8.93;;
68484;SDS011;55472;50.060;21.960;2023-06-22T10:18:56;12.35;;;9.02;;
68484;SDS011;55472;50.060;21.960;2023-06-22T10:21:22;12.83;;;9.17;;
68484;SDS011;55472;50.060;21.960;2023-06-22T10:23:48;16.33;;;9.20;;
68484;SDS011;55472;50.060;21.960;2023-06-22T10:26:14;13.73;;;9.63;;
68484;SDS011;55472;50.060;21.960;2023-06-22T10:28:40;16.42;;;10.30;;
68484;SDS011;55472;50.060;21.960;2023-06-22T10:31:06;15.02;;;9.80;;
68484;SDS011;55472;50.060;21.960;2023-06-22T10:33:33;15.33;;;10.37;;
68484;SDS011;55472;50.060;21.960;2023-06-22T10:36:00;15.75;;;10.73;;
68484;SDS011;55472;50.060;21.960;2023-06-22T10:38:26;14.90;;;10.80;;
68484;SDS011;55472;50.060;21.960;2023-06-22T10:40:52;14.93;;;9.95;;
68484;SDS011;55472;50.060;21.960;2023-06-22T10:43:19;13.65;;;10.95;;
68484;SDS011;55472;50.060;21.960;2023-06-22T10:45:45;16.93;;;10.83;;
68484;SDS011;55472;50.060;21.960;2023-06-22T10:48:11;13.07;;;9.77;;
68484;SDS011;55472;50.060;21.960;2023-06-22T10:50:37;14.70;;;8.63;;
68484;SDS011;55472;50.060;21.960;2023-06-22T10:53:03;14.05;;;9.38;;
68484;SDS011;55472;50.060;21.960;2023-06-22T10:55:29;13.30;;;9.17;;
68484;SDS011;55472;50.060;21.960;2023-06-22T10:57:55;12.90;;;8.75;;
68484;SDS011;55472;50.060;21.960;2023-06-22T11:00:21;12.27;;;9.05;;
68484;SDS011;55472;50.060;21.960;2023-06-22T11:02:48;12.52;;;9.10;;
68484;SDS011;55472;50.060;21.960;2023-06-22T11:05:14;13.73;;;8.77;;
68484;SDS011;55472;50.060;21.960;2023-06-22T11:07:43;14.63;;;10.20;;
68484;SDS011;55472;50.060;21.960;2023-06-22T11:10:10;12.48;;;9.02;;
68484;SDS011;55472;50.060;21.960;2023-06-22T11:12:37;12.02;;;8.38;;
68484;SDS011;55472;50.060;21.960;2023-06-22T11:15:03;14.98;;;9.38;;
68484;SDS011;55472;50.060;21.960;2023-06-22T11:17:31;14.68;;;9.27;;
68484;SDS011;55472;50.060;21.960;2023-06-22T11:19:57;14.10;;;9.80;;
68484;SDS011;55472;50.060;21.960;2023-06-22T11:22:24;10.88;;;8.98;;
68484;SDS011;55472;50.060;21.960;2023-06-22T11:24:50;11.15;;;8.60;;
68484;SDS011;55472;50.060;21.960;2023-06-22T11:27:17;13.80;;;9.57;;
68484;SDS011;55472;50.060;21.960;2023-06-22T11:29:43;13.23;;;8.90;;
68484;SDS011;55472;50.060;21.960;2023-06-22T11:32:09;12.43;;;8.83;;
68484;SDS011;55472;50.060;21.960;2023-06-22T11:34:35;11.00;;;8.27;;
68484;SDS011;55472;50.060;21.960;2023-06-22T11:37:01;10.82;;;8.32;;
68484;SDS011;55472;50.060;21.960;2023-06-22T11:39:27;11.13;;;8.57;;
68484;SDS011;55472;50.060;21.960;2023-06-22T11:41:54;12.63;;;8.60;;
68484;SDS011;55472;50.060;21.960;2023-06-22T11:44:20;11.40;;;8.50;;
68484;SDS011;55472;50.060;21.960;2023-06-22T11:46:46;13.88;;;8.77;;
68484;SDS011;55472;50.060;21.960;2023-06-22T11:49:13;14.18;;;9.00;;
68484;SDS011;55472;50.060;21.960;2023-06-22T11:51:39;11.63;;;8.40;;
68484;SDS011;55472;50.060;21.960;2023-06-22T11:54:05;11.43;;;8.20;;
68484;SDS011;55472;50.060;21.960;2023-06-22T11:56:32;12.27;;;8.33;;
68484;SDS011;55472;50.060;21.960;2023-06-22T11:58:58;10.63;;;8.40;;
68484;SDS011;55472;50.060;21.960;2023-06-22T12:01:25;12.90;;;9.20;;
68484;SDS011;55472;50.060;21.960;2023-06-22T12:03:51;13.05;;;9.23;;
68484;SDS011;55472;50.060;21.960;2023-06-22T12:06:17;13.13;;;8.98;;
68484;SDS011;55472;50.060;21.960;2023-06-22T12:08:43;12.40;;;8.97;;
68484;SDS011;55472;50.060;21.960;2023-06-22T12:11:09;15.43;;;8.65;;
68484;SDS011;55472;50.060;21.960;2023-06-22T12:13:35;12.70;;;9.05;;
68484;SDS011;55472;50.060;21.960;2023-06-22T12:16:01;15.50;;;9.13;;
68484;SDS011;55472;50.060;21.960;2023-06-22T12:18:27;15.30;;;9.80;;
68484;SDS011;55472;50.060;21.960;2023-06-22T12:20:54;12.70;;;8.80;;
68484;SDS011;55472;50.060;21.960;2023-06-22T12:23:20;12.15;;;9.02;;
68484;SDS011;55472;50.060;21.960;2023-06-22T12:25:46;11.82;;;9.00;;
68484;SDS011;55472;50.060;21.960;2023-06-22T12:28:12;14.60;;;9.30;;
68484;SDS011;55472;50.060;21.960;2023-06-22T12:30:38;23.07;;;10.93;;
68484;SDS011;55472;50.060;21.960;2023-06-22T12:33:04;17.92;;;10.45;;
68484;SDS011;55472;50.060;21.960;2023-06-22T12:35:30;22.65;;;10.50;;
68484;SDS011;55472;50.060;21.960;2023-06-22T12:37:56;19.15;;;10.00;;
68484;SDS011;55472;50.060;21.960;2023-06-22T12:40:24;19.88;;;10.93;;
68484;SDS011;55472;50.060;21.960;2023-06-22T12:42:50;21.20;;;10.53;;
68484;SDS011;55472;50.060;21.960;2023-06-22T12:45:16;20.05;;;11.60;;
68484;SDS011;55472;50.060;21.960;2023-06-22T12:47:42;17.42;;;11.23;;
68484;SDS011;55472;50.060;21.960;2023-06-22T12:50:08;15.48;;;10.40;;
68484;SDS011;55472;50.060;21.960;2023-06-22T12:52:36;12.73;;;9.27;;
68484;SDS011;55472;50.060;21.960;2023-06-22T12:55:06;13.50;;;8.00;;
68484;SDS011;55472;50.060;21.960;2023-06-22T12:57:33;13.25;;;8.10;;
68484;SDS011;55472;50.060;21.960;2023-06-22T12:59:59;13.75;;;7.45;;
68484;SDS011;55472;50.060;21.960;2023-06-22T13:02:26;10.68;;;7.03;;
68484;SDS011;55472;50.060;21.960;2023-06-22T13:04:52;13.05;;;7.43;;
68484;SDS011;55472;50.060;21.960;2023-06-22T13:07:18;11.63;;;7.70;;
68484;SDS011;55472;50.060;21.960;2023-06-22T13:09:45;13.02;;;7.90;;
68484;SDS011;55472;50.060;21.960;2023-06-22T13:12:11;11.00;;;7.53;;
68484;SDS011;55472;50.060;21.960;2023-06-22T13:14:38;12.52;;;8.10;;
68484;SDS011;55472;50.060;21.960;2023-06-22T13:17:04;12.65;;;8.23;;
68484;SDS011;55472;50.060;21.960;2023-06-22T13:19:30;11.97;;;8.37;;
68484;SDS011;55472;50.060;21.960;2023-06-22T13:21:57;13.18;;;8.90;;
68484;SDS011;55472;50.060;21.960;2023-06-22T13:24:25;14.85;;;9.65;;
68484;SDS011;55472;50.060;21.960;2023-06-22T13:26:51;13.80;;;8.45;;
68484;SDS011;55472;50.060;21.960;2023-06-22T13:29:17;12.50;;;8.43;;
68484;SDS011;55472;50.060;21.960;2023-06-22T13:31:43;12.83;;;8.50;;
68484;SDS011;55472;50.060;21.960;2023-06-22T13:34:09;11.75;;;8.50;;
68484;SDS011;55472;50.060;21.960;2023-06-22T13:36:35;12.82;;;7.93;;
68484;SDS011;55472;50.060;21.960;2023-06-22T13:39:02;14.15;;;8.32;;
68484;SDS011;55472;50.060;21.960;2023-06-22T13:41:29;12.45;;;8.10;;
68484;SDS011;55472;50.060;21.960;2023-06-22T13:43:55;12.20;;;8.13;;
68484;SDS011;55472;50.060;21.960;2023-06-22T13:46:21;13.18;;;9.02;;
68484;SDS011;55472;50.060;21.960;2023-06-22T13:48:47;13.60;;;8.27;;
68484;SDS011;55472;50.060;21.960;2023-06-22T13:51:13;11.48;;;8.20;;
68484;SDS011;55472;50.060;21.960;2023-06-22T13:53:39;13.38;;;8.77;;
68484;SDS011;55472;50.060;21.960;2023-06-22T13:56:05;11.77;;;8.23;;
68484;SDS011;55472;50.060;21.960;2023-06-22T13:58:31;13.55;;;9.07;;
68484;SDS011;55472;50.060;21.960;2023-06-22T14:00:57;12.38;;;9.05;;
68484;SDS011;55472;50.060;21.960;2023-06-22T14:03:24;12.43;;;8.40;;
68484;SDS011;55472;50.060;21.960;2023-06-22T14:05:50;12.07;;;8.47;;
68484;SDS011;55472;50.060;21.960;2023-06-22T14:08:19;11.57;;;8.10;;
68484;SDS011;55472;50.060;21.960;2023-06-22T14:10:46;12.60;;;8.13;;
68484;SDS011;55472;50.060;21.960;2023-06-22T14:13:12;13.15;;;8.40;;
68484;SDS011;55472;50.060;21.960;2023-06-22T14:15:38;12.30;;;8.25;;
68484;SDS011;55472;50.060;21.960;2023-06-22T14:18:04;13.82;;;8.75;;
68484;SDS011;55472;50.060;21.960;2023-06-22T14:20:30;13.67;;;9.47;;
68484;SDS011;55472;50.060;21.960;2023-06-22T14:22:57;14.38;;;9.43;;
68484;SDS011;55472;50.060;21.960;2023-06-22T14:25:23;15.32;;;10.10;;